x

Slate Island (45136) Wave Buoy

2:00am - Sun 24th Sep 2017 All times are CDT. -5 hours from GMT.

  • Sig Wave height 1.3ft
  • Peak Period 4s
  • Wind
    4mph, 7mph gusts
  • Sea Temp 58°f
  • Air Temp 59°f
  • Sea Pressure 1016.7mb
  • Slate Island
  • Slate Island

More Historic Weather Station data

Upgrade to MSW Pro to gain access to the past 30 days of data for over 8000 Wavebouys and Weather Stations around the globe.

Join

Comparision Forecast

View Surf forecast
   
Sun 09/24 2:00am 1.3ft 4s 4 7 mph 1016.7mb 58f 59f
1:00am 1.3ft 4s 2 4 mph 1016.5mb 58f 58f
12:00am 1.3ft 4s 7 7 mph 1016.1mb 58f 58f
Sat 09/23 11:00pm 1.3ft 4s 7 7 mph 1015.8mb 58f 59f
10:00pm 1.3ft 4s 9 13 mph 1015.9mb 58f 59f
9:00pm 1.3ft 4s 7 9 mph 1015.7mb 58f 59f
8:00pm 1.3ft 4s 9 9 mph 1015.4mb 58f 58f
7:00pm 1.3ft 4s 4 7 mph 1015.2mb 58f 59f
6:00pm 1.3ft 4s 9 9 mph 1014.7mb 58f 59f
5:00pm 1.6ft 4s 4 7 mph 1014.6mb 59f 59f
4:00pm 1.6ft 4s 4 4 mph 1014.3mb 59f 60f
3:00pm 2ft 5s 4 7 mph 1014mb 58f 59f
2:00pm 2.5ft 5s 2 4 mph 1014mb 58f 59f
1:00pm 2.5ft 5s 9 11 mph 1013.6mb 57f 59f
12:00pm 3ft 5s 9 9 mph 1014.2mb 57f 59f
11:00am 3ft 5s 9 9 mph 1014mb 57f 58f
10:00am 3.5ft 5s 13 16 mph 1013mb 56f 58f
9:00am 3.5ft 5s 13 16 mph 1012.3mb 56f 58f
8:00am 4ft 5s 7 9 mph 1012.3mb 56f 59f
7:00am 4ft 5s 11 13 mph 1012.2mb 56f 60f
6:00am 3.5ft 5s 4 7 mph 1012.9mb 56f 61f
5:00am 3.5ft 5s 22 31 mph 1010.5mb 56f 61f
4:00am 3.5ft 5s 18 20 mph 1010mb 56f 59f
3:00am 3.5ft 5s 20 22 mph 1010.9mb 56f 60f
2:00am 3ft 4s 18 20 mph 1011.6mb 56f 59f
1:00am 2.5ft 4s 18 20 mph 1012mb 56f 59f
12:00am 1.6ft 4s 18 22 mph 1012mb 55f 59f
Fri 09/22 11:00pm 1.6ft 4s 13 16 mph 1012.9mb 55f 58f
10:00pm 1.3ft 4s 9 11 mph 1013.5mb 55f 58f
9:00pm 1.3ft 4s 9 9 mph 1013.8mb 55f 57f
8:00pm 1.6ft 4s 9 11 mph 1014.1mb 55f 57f
7:00pm 1.6ft 4s 11 13 mph 1014.4mb 55f 58f
6:00pm 1.6ft 4s 9 11 mph 1014.4mb 56f 58f
5:00pm 2.5ft 4s 11 13 mph 1014.3mb 56f 59f
4:00pm 2.5ft 4s 9 11 mph 1014.2mb 56f 60f
3:00pm 1.6ft 4s 18 20 mph 1013.8mb 56f 59f
2:00pm 1.6ft 4s 13 16 mph 1012.9mb 56f 58f
1:00pm 2ft 4s 16 18 mph 1010.9mb 55f 57f
12:00pm 2ft 4s 4 7 mph 1014.1mb 55f 57f
11:00am 2ft 4s 7 9 mph 1013.7mb 55f 58f
10:00am 2ft 4s 4 7 mph 1013.6mb 55f 57f
9:00am 2ft 4s 4 4 mph 1014.3mb 55f 58f
8:00am 2ft 4s 11 13 mph 1013mb 55f 57f
7:00am 2ft 4s 16 18 mph 1013.1mb 55f 57f
6:00am 2ft 4s 16 18 mph 1013.3mb 54f 57f
5:00am 1.6ft 4s 16 18 mph 1013.4mb 54f 57f
4:00am 1.6ft 3s 16 18 mph 1013.8mb 55f 57f
3:00am 0.7ft 2s 16 20 mph 1013.8mb 55f 58f
2:00am 0.3ft 3s 13 13 mph 1014.5mb 55f 58f
1:00am 0.3ft 4s 7 7 mph 1015.2mb 55f 57f
12:00am 0.3ft 4s 4 7 mph 1015.8mb 55f 57f
Thu 09/21 11:00pm 0.3ft 4s 9 9 mph 1016.2mb 56f 57f
10:00pm 0.3ft 4s 7 7 mph 1016.7mb 56f 58f
9:00pm 0.3ft 4s 2 4 mph 1017mb 56f 58f
8:00pm 0.3ft 4s 4 4 mph 1016.6mb 56f 59f
7:00pm 0.3ft 4s 4 4 mph 1016.6mb 57f 60f
6:00pm 0.3ft 4s 2 2 mph 1016.8mb 58f 61f
5:00pm 0.3ft 4s 2 4 mph 1016.7mb 59f 61f
4:00pm 0.7ft 4s 2 4 mph 1017.1mb 58f 62f
3:00pm 0.7ft 5s 4 4 mph 1017.9mb 58f 60f
2:00pm 0.7ft 5s 4 4 mph 1018.2mb 57f 59f
11:00am 1ft 4s 4 4 mph 1018.9mb 55f 55f
10:00am 0.7ft 4s 7 7 mph 1018.9mb 55f 54f
9:00am 1ft 5s 4 4 mph 1018.8mb 54f 54f
8:00am 1ft 5s 2 4 mph 1018.7mb 54f 51f
7:00am 1ft 5s 4 4 mph 1018.5mb 54f 53f
6:00am 1.3ft 5s 2 2 mph 1017.8mb 54f 52f
5:00am 1.3ft 5s 2 2 mph 1017.3mb 54f 51f
4:00am 1.6ft 5s 2 9 mph 1016.5mb 54f 53f
3:00am 2ft 5s 4 7 mph 1015.6mb 54f 54f
2:00am 2.5ft 6s 9 9 mph 1015.5mb 54f 55f
1:00am 2.5ft 5s 2 4 mph 1015.1mb 54f 55f
12:00am 3ft 5s 2 2 mph 1014.2mb 54f 55f
Wed 09/20 11:00pm 3ft 6s 4 4 mph 1013.2mb 54f 56f
10:00pm 3ft 5s 4 7 mph 1012.1mb 54f 56f
9:00pm 3.5ft 6s 9 9 mph 1011.1mb 54f 57f
8:00pm 3.5ft 6s 13 16 mph 1010.1mb 54f 57f
7:00pm 4.5ft 6s 16 18 mph 1009.9mb 55f 57f
6:00pm 4.5ft 6s 16 20 mph 1009.7mb 55f 58f
5:00pm  -   -  20
mph
1009mb 55f 58f
4:00pm 5ft 6s 25 29 mph 1008.3mb 55f 58f
3:00pm 5ft 6s 22 27 mph 1009.3mb 55f 58f
2:00pm 5ft 6s 20 25 mph 1009.4mb 55f 58f
1:00pm 5ft 6s 22 27 mph 1009.3mb 55f 58f
12:00pm 5ft 6s 22 25 mph 1010mb 54f 58f
11:00am 4.5ft 5s 25 29 mph 1009.4mb 54f 58f
10:00am 4.5ft 5s 27 31 mph 1010.3mb 55f 57f
9:00am 4ft 5s 18 22 mph 1013.3mb 55f 57f